Time;durP1;ratioP1;P1;durP2;ratioP2;P2;SDS_P1;SDS_P2;PMS_P1;PMS_P2;Temp;Humidity;BMP_temperature;BMP_pressure;BME280_temperature;BME280_humidity;BME280_pressure;Samples;Min_cycle;Max_cycle;Signal;HPM_P1;HPM_P2
2021/06/15 00:01:08;;;;;;;;;12.00;10.00;;;;;19.78;44.69;99115.50;6269984;27;124944;-60
2021/06/15 00:04:11;;;;;;;;;9.40;9.00;;;;;19.73;44.78;99115.53;6268271;27;126347;-59
2021/06/15 00:07:16;;;;;;;;;10.00;9.00;;;;;19.68;44.91;99125.66;6265640;27;125011;-59
2021/06/15 00:10:23;;;;;;;;;10.00;8.00;;;;;19.52;45.25;99110.31;6273587;27;126114;-61
2021/06/15 00:13:26;;;;;;;;;10.00;10.00;;;;;19.59;45.13;99110.88;6278212;27;124586;-60
2021/06/15 00:16:29;;;;;;;;;10.00;9.00;;;;;19.56;45.36;99125.91;6267829;27;125577;-60
2021/06/15 00:19:33;;;;;;;;;10.00;10.00;;;;;19.49;45.33;99116.34;6260455;27;125355;-60
2021/06/15 00:22:38;;;;;;;;;11.00;11.00;;;;;19.40;45.66;99122.31;6264713;27;124045;-60
2021/06/15 00:25:41;;;;;;;;;11.25;10.25;;;;;19.39;45.51;99123.44;6274011;27;126050;-60
2021/06/15 00:28:45;;;;;;;;;11.00;11.00;;;;;19.38;45.80;99119.06;6266196;27;126453;-60
2021/06/15 00:31:48;;;;;;;;;14.00;12.60;;;;;19.37;45.54;99122.88;6262737;27;124997;-60
2021/06/15 00:34:53;;;;;;;;;13.00;13.00;;;;;19.39;45.53;99122.63;6264910;27;125514;-60
2021/06/15 00:37:57;;;;;;;;;10.00;10.00;;;;;19.37;45.25;99117.41;6277184;27;126197;-60
2021/06/15 00:41:01;;;;;;;;;12.00;11.00;;;;;19.36;45.68;99134.09;6273392;27;125958;-59
2021/06/15 00:44:08;;;;;;;;;10.00;10.00;;;;;19.35;45.49;99124.25;6258537;27;124005;-59
2021/06/15 00:47:13;;;;;;;;;9.40;9.00;;;;;19.36;45.48;99120.41;6267004;27;124739;-60
2021/06/15 00:50:18;;;;;;;;;13.80;12.00;;;;;19.25;45.53;99110.59;6271724;27;124830;-60
2021/06/15 00:53:24;;;;;;;;;14.00;11.00;;;;;19.28;45.71;99137.38;6259813;27;124252;-59
2021/06/15 00:56:28;;;;;;;;;9.75;9.00;;;;;19.25;45.60;99119.63;6259640;27;124394;-59
2021/06/15 00:59:32;;;;;;;;;10.00;10.00;;;;;19.23;45.45;99121.78;6279043;27;126287;-60
2021/06/15 01:02:37;;;;;;;;;12.40;10.40;;;;;19.25;45.57;99116.06;6265501;27;126500;-60
2021/06/15 01:05:41;;;;;;;;;11.00;9.80;;;;;19.04;45.49;99080.50;6259659;27;124664;-60
2021/06/15 01:09:00;;;;;;;;;12.40;11.40;;;;;19.29;45.43;99107.03;6262465;27;125971;-60
2021/06/15 01:12:13;;;;;;;;;11.00;10.25;;;;;19.29;45.47;99109.78;6274708;27;123973;-60
2021/06/15 01:15:23;;;;;;;;;11.75;11.00;;;;;19.29;45.47;99101.56;6253295;27;124804;-59
2021/06/15 01:18:27;;;;;;;;;12.00;11.00;;;;;19.12;45.53;99075.56;6273581;27;126581;-59
2021/06/15 01:21:31;;;;;;;;;12.20;10.60;;;;;19.04;45.39;99064.13;6256960;27;124655;-59
2021/06/15 01:24:43;;;;;;;;;13.00;12.00;;;;;19.27;45.60;99091.97;6247413;27;124080;-61
2021/06/15 01:27:52;;;;;;;;;11.60;10.60;;;;;19.27;45.61;99095.53;6262728;27;126074;-60
2021/06/15 01:31:03;;;;;;;;;11.50;10.50;;;;;19.28;45.35;99088.16;6266319;27;124594;-59
2021/06/15 01:34:09;;;;;;;;;14.00;12.00;;;;;19.25;45.30;99084.06;6276296;27;125766;-59
2021/06/15 01:37:19;;;;;;;;;14.00;12.00;;;;;19.24;45.59;99076.13;6253247;27;124717;-60
2021/06/15 01:40:27;;;;;;;;;11.40;11.00;;;;;19.25;45.40;99075.06;6259329;27;124120;-60
2021/06/15 01:43:42;;;;;;;;;12.80;11.80;;;;;19.21;45.50;99066.56;6262673;27;125852;-60
2021/06/15 01:46:53;;;;;;;;;9.80;8.80;;;;;19.16;45.56;99079.41;6262545;27;124468;-59
2021/06/15 01:49:59;;;;;;;;;12.00;11.00;;;;;19.01;46.01;99072.00;6269363;27;124378;-59
2021/06/15 01:53:08;;;;;;;;;12.00;10.40;;;;;19.02;46.13;99079.94;6270006;27;126341;-60
2021/06/15 01:56:16;;;;;;;;;12.40;10.00;;;;;19.06;46.01;99079.41;6256826;27;126153;-60
2021/06/15 01:59:26;;;;;;;;;13.00;11.60;;;;;19.03;46.03;99084.31;6278370;27;123956;-60
2021/06/15 02:02:34;;;;;;;;;11.60;11.40;;;;;19.06;46.10;99080.22;6264135;27;127346;-59
2021/06/15 02:05:42;;;;;;;;;13.00;11.25;;;;;19.02;46.25;99079.94;6263032;27;124676;-59
2021/06/15 02:08:50;;;;;;;;;11.00;10.00;;;;;19.00;46.17;99073.13;6261343;27;123032;-60
2021/06/15 02:12:10;;;;;;;;;12.00;11.00;;;;;18.97;46.03;99074.47;6278131;27;125615;-59
2021/06/15 02:15:36;;;;;;;;;10.60;10.00;;;;;18.87;46.17;99068.16;6261043;27;125906;-60
2021/06/15 02:19:02;;;;;;;;;12.00;11.00;;;;;18.79;46.02;99072.28;6277101;27;124805;-60
2021/06/15 02:22:18;;;;;;;;;10.75;10.50;;;;;18.72;46.16;99063.50;6260912;27;126103;-60
2021/06/15 02:25:25;;;;;;;;;11.00;10.00;;;;;18.66;46.37;99061.88;6259484;27;124263;-59
2021/06/15 02:28:30;;;;;;;;;11.80;11.00;;;;;18.50;46.61;99051.97;6275549;27;125902;-59
2021/06/15 02:31:41;;;;;;;;;12.00;11.75;;;;;18.65;46.32;99065.69;6268450;27;123797;-60
2021/06/15 02:34:48;;;;;;;;;12.00;11.00;;;;;18.66;46.48;99066.50;6270078;27;127233;-59
2021/06/15 02:37:55;;;;;;;;;9.60;9.60;;;;;18.71;46.35;99061.06;6266847;27;124749;-59
2021/06/15 02:41:04;;;;;;;;;9.60;9.00;;;;;18.64;46.35;99061.31;6275392;27;125334;-60
2021/06/15 02:44:15;;;;;;;;;10.00;10.00;;;;;18.72;46.37;99063.50;6267119;27;126214;-60
2021/06/15 02:47:21;;;;;;;;;12.50;11.50;;;;;18.72;46.40;99076.34;6260137;27;124803;-60
2021/06/15 02:50:27;;;;;;;;;9.75;8.75;;;;;18.74;46.28;99075.00;6275411;27;127048;-59
2021/06/15 02:53:36;;;;;;;;;9.60;9.00;;;;;18.76;46.31;99074.72;6278732;27;125771;-59
2021/06/15 02:56:43;;;;;;;;;11.25;11.00;;;;;18.72;46.41;99060.78;6267280;27;125769;-59
2021/06/15 02:59:48;;;;;;;;;11.00;11.00;;;;;18.69;46.47;99074.16;6261124;27;126002;-59
2021/06/15 03:02:52;;;;;;;;;11.00;10.00;;;;;18.57;46.36;99053.38;6271069;27;126298;-60
2021/06/15 03:05:58;;;;;;;;;11.00;11.00;;;;;18.66;46.34;99061.06;6250191;27;123606;-59
2021/06/15 03:09:02;;;;;;;;;11.33;10.00;;;;;18.66;46.48;99059.16;6263539;27;124860;-59
2021/06/15 03:12:10;;;;;;;;;13.00;12.40;;;;;18.81;46.60;99077.47;6245775;27;124131;-60
2021/06/15 03:15:23;;;;;;;;;11.60;10.60;;;;;18.87;46.22;99059.97;6259537;27;127922;-60
2021/06/15 03:18:33;;;;;;;;;12.20;12.00;;;;;18.92;46.23;99063.53;6260718;27;126707;-60
2021/06/15 03:21:44;;;;;;;;;10.00;10.00;;;;;18.76;46.05;99056.44;6256897;27;125878;-60
2021/06/15 03:24:54;;;;;;;;;12.50;12.00;;;;;18.94;46.14;99072.28;6264742;27;125000;-60
2021/06/15 03:28:01;;;;;;;;;10.00;10.00;;;;;18.91;46.06;99064.63;6261133;27;126163;-59
2021/06/15 03:31:08;;;;;;;;;8.00;8.00;;;;;19.00;45.69;99060.28;6259773;27;126112;-60
2021/06/15 03:34:19;;;;;;;;;11.00;10.00;;;;;19.03;45.72;99048.81;6246490;27;125800;-60
2021/06/15 03:37:26;;;;;;;;;11.00;10.00;;;;;19.16;45.48;99060.25;6245101;27;124250;-59
2021/06/15 03:40:35;;;;;;;;;8.50;7.50;;;;;19.12;45.44;99040.03;6268658;27;124168;-60
2021/06/15 03:43:44;;;;;;;;;11.00;9.60;;;;;19.37;45.27;99070.09;6267103;27;125924;-60
2021/06/15 03:46:50;;;;;;;;;12.00;11.00;;;;;19.49;44.84;99059.75;6264194;27;126732;-60
2021/06/15 03:49:56;;;;;;;;;11.00;9.20;;;;;19.44;44.78;99041.44;6270250;27;125672;-61
2021/06/15 03:53:02;;;;;;;;;12.00;11.00;;;;;19.66;44.88;99071.19;6273753;27;124838;-60
2021/06/15 03:56:08;;;;;;;;;11.00;10.00;;;;;19.82;44.77;99082.94;6258893;27;125820;-59
2021/06/15 03:59:15;;;;;;;;;10.00;9.00;;;;;19.90;44.30;99082.38;6262851;27;127066;-60
2021/06/15 04:02:21;;;;;;;;;11.00;10.75;;;;;19.87;44.34;99100.16;6260957;27;124633;-60
2021/06/15 04:05:31;;;;;;;;;11.00;10.00;;;;;19.93;44.13;99100.16;6250634;27;124873;-59
2021/06/15 04:08:36;;;;;;;;;10.00;10.00;;;;;19.89;44.31;99092.47;6244420;27;126526;-59
2021/06/15 04:11:42;;;;;;;;;12.00;11.00;;;;;19.92;44.04;99102.06;6243733;27;124437;-60
2021/06/15 04:14:47;;;;;;;;;12.40;10.40;;;;;19.75;44.36;99085.13;6245803;27;125958;-60
2021/06/15 04:17:52;;;;;;;;;11.00;10.00;;;;;19.77;44.26;99093.91;6243586;27;124892;-59
2021/06/15 04:21:00;;;;;;;;;12.00;10.00;;;;;19.70;44.22;99090.59;6255278;27;126094;-60
2021/06/15 04:24:08;;;;;;;;;11.50;10.75;;;;;19.66;44.66;99092.25;6244211;27;124508;-59
2021/06/15 04:27:11;;;;;;;;;12.00;12.00;;;;;19.34;45.32;99071.50;6259843;27;125730;-59
2021/06/15 04:30:18;;;;;;;;;13.60;13.00;;;;;19.55;45.60;99107.06;6259337;27;124919;-59
2021/06/15 04:33:28;;;;;;;;;14.00;14.00;;;;;19.63;45.50;99101.03;6254460;27;123825;-60
2021/06/15 04:36:34;;;;;;;;;16.20;14.00;;;;;19.68;45.45;99093.66;6263734;27;127063;-60
2021/06/15 04:39:40;;;;;;;;;14.00;13.00;;;;;19.75;45.46;99093.34;6267574;27;125539;-59
2021/06/15 04:42:56;;;;;;;;;15.00;13.00;;;;;19.80;45.52;99096.06;6265850;27;126172;-59
2021/06/15 04:46:09;;;;;;;;;14.00;14.00;;;;;19.87;45.62;99091.13;6260291;27;126418;-60
2021/06/15 04:49:17;;;;;;;;;16.60;15.60;;;;;19.85;45.77;99068.69;6268470;27;124886;-60
2021/06/15 04:52:25;;;;;;;;;17.00;14.00;;;;;20.09;45.31;99101.75;6270064;27;125765;-59
2021/06/15 04:55:30;;;;;;;;;14.00;13.75;;;;;20.17;45.08;99107.47;6266541;27;124751;-60
2021/06/15 04:58:35;;;;;;;;;13.00;13.00;;;;;20.26;44.70;99099.50;6259220;27;127211;-60
2021/06/15 05:01:39;;;;;;;;;14.00;12.40;;;;;20.31;44.12;99103.09;6267877;27;123934;-60
2021/06/15 05:04:42;;;;;;;;;13.20;13.00;;;;;20.42;44.12;99108.53;6269467;27;125726;-60
2021/06/15 05:07:55;;;;;;;;;13.00;12.50;;;;;20.56;43.93;99107.63;6277038;27;126914;-60
2021/06/15 05:11:01;;;;;;;;;13.40;12.40;;;;;20.69;44.00;99107.00;6258789;27;124633;-60
2021/06/15 05:14:07;;;;;;;;;13.00;12.00;;;;;20.87;43.32;99108.25;6272117;27;124749;-59
2021/06/15 05:17:12;;;;;;;;;14.60;12.00;;;;;20.85;43.60;99087.75;6270202;27;126106;-59
2021/06/15 05:20:17;;;;;;;;;10.20;10.00;;;;;21.11;43.39;99109.19;6253195;27;128631;-60
2021/06/15 05:23:32;;;;;;;;;13.00;13.00;;;;;21.33;42.64;99103.31;6238971;27;124834;-59
2021/06/15 05:26:35;;;;;;;;;12.60;12.00;;;;;21.36;42.41;99108.22;6253873;27;125300;-60
2021/06/15 05:29:38;;;;;;;;;14.00;13.00;;;;;21.44;42.45;99110.38;6262609;27;126899;-60
2021/06/15 05:32:41;;;;;;;;;13.00;12.60;;;;;21.54;42.17;99113.03;6251926;27;125295;-60
2021/06/15 05:35:45;;;;;;;;;15.60;14.20;;;;;21.61;42.58;99124.47;6246209;27;124697;-60
2021/06/15 05:38:50;;;;;;;;;16.00;14.00;;;;;21.70;42.33;99123.88;6266057;27;124758;-59
2021/06/15 05:41:53;;;;;;;;;13.80;12.80;;;;;21.61;42.12;99101.69;6260683;27;124849;-60
2021/06/15 05:44:56;;;;;;;;;15.80;14.60;;;;;21.85;42.68;99132.75;6264631;27;127125;-60
2021/06/15 05:47:59;;;;;;;;;18.60;15.00;;;;;21.70;42.67;99107.41;6263532;27;124840;-60
2021/06/15 05:51:04;;;;;;;;;17.00;14.00;;;;;21.96;41.79;99139.00;6278805;27;126448;-60
2021/06/15 05:54:09;;;;;;;;;15.60;14.00;;;;;22.12;41.78;99148.72;6269792;27;126074;-59
2021/06/15 05:57:13;;;;;;;;;15.20;13.20;;;;;22.18;41.58;99139.34;6266013;27;124641;-60
2021/06/15 06:00:17;;;;;;;;;18.00;15.00;;;;;22.37;41.29;99151.19;6263853;27;126137;-59
2021/06/15 06:03:24;;;;;;;;;16.00;15.00;;;;;22.43;40.83;99154.72;6249549;27;125146;-59
2021/06/15 06:09:50;;;;;;;;;14.00;13.00;;;;;22.82;40.72;99162.78;6250161;27;123524;-60
2021/06/15 06:12:53;;;;;;;;;16.20;15.60;;;;;23.03;40.83;99166.03;6272774;27;125102;-59
2021/06/15 06:16:01;;;;;;;;;16.80;15.80;;;;;23.15;39.44;99160.94;6265055;27;125470;-59
2021/06/15 06:19:05;;;;;;;;;16.00;15.20;;;;;23.13;39.80;99169.47;6257446;27;123535;-60
2021/06/15 06:22:08;;;;;;;;;14.40;14.00;;;;;23.18;39.40;99166.66;6240751;27;126249;-60
2021/06/15 06:25:15;;;;;;;;;16.40;16.00;;;;;23.27;39.01;99175.88;6240316;27;124998;-59
2021/06/15 06:28:18;;;;;;;;;15.20;14.20;;;;;23.42;39.14;99165.75;6246980;27;126189;-60
2021/06/15 06:31:24;;;;;;;;;17.00;15.00;;;;;23.39;38.75;99156.16;6240602;27;125985;-59
2021/06/15 06:34:27;;;;;;;;;19.00;17.00;;;;;23.66;39.23;99174.75;6246334;27;126835;-59
2021/06/15 06:37:31;;;;;;;;;14.60;13.60;;;;;23.70;38.95;99170.28;6274611;27;123487;-59
2021/06/15 06:40:35;;;;;;;;;17.00;15.00;;;;;23.79;38.73;99170.41;6273219;27;125151;-60
2021/06/15 06:43:38;;;;;;;;;16.00;16.00;;;;;23.88;39.05;99168.59;6264175;27;126067;-59
2021/06/15 06:46:42;;;;;;;;;16.00;14.00;;;;;23.81;39.04;99166.22;6263930;27;124022;-59
2021/06/15 06:49:45;;;;;;;;;15.60;15.00;;;;;23.85;38.86;99141.69;6262145;27;126023;-59
2021/06/15 06:52:51;;;;;;;;;17.60;15.00;;;;;24.12;39.32;99172.84;6268267;27;124828;-60
2021/06/15 06:55:56;;;;;;;;;15.00;14.00;;;;;24.22;38.56;99158.09;6264655;27;125729;-61
2021/06/15 06:58:59;;;;;;;;;13.60;13.60;;;;;24.48;38.12;99167.47;6263252;27;126158;-61
2021/06/15 07:02:03;;;;;;;;;15.60;15.00;;;;;24.69;37.58;99173.41;6270994;27;126373;-60
2021/06/15 07:05:07;;;;;;;;;14.00;13.00;;;;;24.81;37.12;99161.88;6267660;27;124927;-60
2021/06/15 07:08:10;;;;;;;;;13.20;10.80;;;;;24.98;38.25;99159.31;6262656;27;125380;-61
2021/06/15 07:11:14;;;;;;;;;12.00;10.60;;;;;25.06;35.46;99155.84;6265335;27;124846;-60
2021/06/15 07:14:22;;;;;;;;;12.00;11.50;;;;;25.22;35.39;99168.13;6273800;27;124952;-60
2021/06/15 07:17:26;;;;;;;;;13.50;12.00;;;;;25.34;35.60;99148.28;6278401;27;125188;-60
2021/06/15 07:20:29;;;;;;;;;11.75;11.75;;;;;25.62;34.32;99166.38;6261859;27;125232;-60
2021/06/15 07:23:32;;;;;;;;;15.00;12.40;;;;;25.79;34.16;99163.75;6263261;27;126119;-60
2021/06/15 07:26:37;;;;;;;;;11.50;10.50;;;;;26.04;34.43;99167.81;6276679;27;126188;-60
2021/06/15 07:29:40;;;;;;;;;12.00;12.00;;;;;26.25;34.65;99162.56;6275095;27;124612;-61
2021/06/15 07:32:43;;;;;;;;;11.00;10.00;;;;;26.34;33.60;99163.44;6278306;27;124801;-61
2021/06/15 07:35:47;;;;;;;;;12.00;11.60;;;;;26.41;33.96;99143.63;6273716;27;126026;-61
2021/06/15 07:38:51;;;;;;;;;11.00;10.00;;;;;26.69;34.28;99156.91;6278404;27;123956;-61
2021/06/15 07:41:55;;;;;;;;;9.60;9.60;;;;;26.86;33.47;99161.69;6271043;27;125930;-61
2021/06/15 07:44:59;;;;;;;;;8.00;8.00;;;;;26.98;31.01;99161.06;6266834;27;124930;-61
2021/06/15 07:48:03;;;;;;;;;8.00;7.40;;;;;26.85;30.62;99154.50;6273466;27;125920;-61
2021/06/15 07:51:07;;;;;;;;;5.00;4.20;;;;;26.95;30.17;99154.22;6259570;27;126465;-61
2021/06/15 07:54:10;;;;;;;;;7.00;7.00;;;;;27.15;30.34;99152.78;6261433;27;126268;-61
2021/06/15 07:57:14;;;;;;;;;7.00;6.00;;;;;27.33;30.11;99140.56;6246764;27;124774;-61
2021/06/15 08:00:19;;;;;;;;;6.00;6.00;;;;;27.50;28.97;99140.63;6269096;27;124922;-61
2021/06/15 08:03:24;;;;;;;;;5.00;4.80;;;;;27.84;28.75;99144.47;6277973;27;124507;-61
2021/06/15 08:06:27;;;;;;;;;5.00;5.00;;;;;28.27;29.44;99128.56;6267292;27;126885;-61
2021/06/15 08:09:30;;;;;;;;;5.80;4.80;;;;;28.55;27.37;99139.19;6261278;27;124788;-61
2021/06/15 08:12:35;;;;;;;;;7.00;6.60;;;;;28.62;27.65;99129.22;6274754;27;124956;-61
2021/06/15 08:15:38;;;;;;;;;3.80;3.80;;;;;28.79;27.16;99136.63;6272100;27;125807;-60
2021/06/15 08:18:41;;;;;;;;;4.20;4.20;;;;;29.08;27.62;99144.94;6268397;27;125022;-61
2021/06/15 08:21:44;;;;;;;;;4.40;4.40;;;;;29.45;28.03;99131.28;6262959;27;124767;-61
2021/06/15 08:24:47;;;;;;;;;5.00;5.00;;;;;29.69;26.77;99134.16;6266026;27;127780;-61
2021/06/15 08:27:53;;;;;;;;;4.00;4.00;;;;;29.95;26.43;99133.94;6260309;27;125899;-61
2021/06/15 08:30:57;;;;;;;;;4.00;3.00;;;;;30.20;25.82;99132.84;6270710;27;123818;-61
2021/06/15 08:34:00;;;;;;;;;5.60;5.40;;;;;30.55;25.70;99134.03;6260712;27;125689;-61
2021/06/15 08:37:04;;;;;;;;;5.00;4.00;;;;;30.65;24.78;99131.94;6266949;27;123571;-61
2021/06/15 08:40:09;;;;;;;;;5.00;4.00;;;;;30.79;25.10;99136.00;6268126;27;126190;-61
2021/06/15 08:43:13;;;;;;;;;5.00;4.60;;;;;31.00;25.42;99124.72;6268665;27;124447;-61
2021/06/15 08:46:18;;;;;;;;;4.00;4.00;;;;;31.06;24.39;99123.34;6254391;27;124820;-61
2021/06/15 08:49:21;;;;;;;;;5.00;5.00;;;;;30.80;24.02;99132.06;6264439;27;123575;-61
2021/06/15 08:52:26;;;;;;;;;6.00;5.00;;;;;30.43;23.01;99122.06;6265301;27;124984;-61
2021/06/15 08:55:34;;;;;;;;;5.00;5.00;;;;;30.42;24.41;99129.59;6263038;27;124895;-61
2021/06/15 08:58:47;;;;;;;;;5.00;4.60;;;;;30.64;26.02;99122.00;6259415;27;125958;-61
2021/06/15 09:01:54;;;;;;;;;7.60;6.00;;;;;30.96;24.75;99112.66;6263342;27;124801;-61
2021/06/15 09:04:58;;;;;;;;;5.00;5.00;;;;;31.39;25.43;99123.94;6266291;27;126474;-61
2021/06/15 09:08:03;;;;;;;;;8.00;6.00;;;;;31.66;22.79;99125.16;6261393;27;126115;-62
2021/06/15 09:11:07;;;;;;;;;4.00;4.00;;;;;31.87;23.59;99122.13;6270772;27;124600;-61
2021/06/15 09:14:11;;;;;;;;;5.00;5.00;;;;;31.97;22.41;99129.97;6261443;27;125332;-61
2021/06/15 09:17:18;;;;;;;;;4.00;4.00;;;;;31.61;22.62;99119.84;6267049;27;124832;-61
2021/06/15 09:20:24;;;;;;;;;6.00;5.00;;;;;31.51;22.98;99123.09;6237053;27;124874;-61
2021/06/15 09:23:34;;;;;;;;;3.50;3.50;;;;;31.10;23.01;99103.97;6260252;27;125820;-61
2021/06/15 09:27:02;;;;;;;;;5.00;4.00;;;;;30.59;22.48;99128.59;6263516;27;124817;-61
2021/06/15 09:30:09;;;;;;;;;5.00;5.00;;;;;30.33;23.57;99128.91;6260789;27;126561;-61
2021/06/15 09:33:12;;;;;;;;;5.00;4.00;;;;;30.44;24.19;99127.28;6267057;27;125878;-61
2021/06/15 09:36:36;;;;;;;;;5.00;5.00;;;;;30.77;23.99;99107.72;6266001;27;126118;-61
2021/06/15 09:39:39;;;;;;;;;4.25;4.00;;;;;31.16;24.43;99119.25;6258967;27;124760;-62
2021/06/15 09:42:54;;;;;;;;;5.00;5.00;;;;;31.48;23.99;99114.63;6263805;27;127455;-61
2021/06/15 09:45:58;;;;;;;;;6.00;5.00;;;;;31.79;23.33;99111.97;6254249;27;125194;-61
2021/06/15 09:49:02;;;;;;;;;5.00;5.00;;;;;32.09;22.59;99112.34;6251297;27;123343;-61
2021/06/15 09:52:09;;;;;;;;;4.00;4.00;;;;;32.24;22.46;99106.81;6261200;27;125930;-61
2021/06/15 09:55:12;;;;;;;;;4.40;4.40;;;;;32.36;22.30;99096.72;6268452;27;126293;-61
2021/06/15 09:58:16;;;;;;;;;4.80;4.40;;;;;32.35;21.78;99087.56;6258123;27;123863;-61
2021/06/15 10:01:26;;;;;;;;;6.00;5.00;;;;;32.48;21.67;99094.66;6251658;27;126368;-61
2021/06/15 10:04:29;;;;;;;;;5.00;5.00;;;;;32.66;21.10;99093.13;6267259;27;126386;-62
2021/06/15 10:07:33;;;;;;;;;5.00;5.00;;;;;32.65;21.53;99062.75;6261184;27;124674;-61
2021/06/15 10:10:41;;;;;;;;;5.60;5.00;;;;;32.78;21.84;99069.88;6261055;27;125784;-62
2021/06/15 10:13:45;;;;;;;;;6.00;5.80;;;;;32.75;20.82;99076.16;6285156;27;127148;-62
2021/06/15 10:16:50;;;;;;;;;6.00;5.00;;;;;32.41;21.10;99088.06;6273569;27;126057;-62
2021/06/15 10:19:55;;;;;;;;;4.00;3.60;;;;;32.35;22.75;99084.78;6268228;27;125031;-61
2021/06/15 10:23:00;;;;;;;;;6.00;5.00;;;;;32.36;21.80;99072.41;6270238;27;123920;-60
2021/06/15 10:26:06;;;;;;;;;3.67;3.67;;;;;32.33;22.66;99070.38;6275953;27;124657;-61
2021/06/15 10:29:14;;;;;;;;;4.00;4.00;;;;;32.45;22.08;99070.25;6276800;27;126505;-61
2021/06/15 10:32:20;;;;;;;;;5.00;4.40;;;;;32.73;23.01;99066.53;6246798;27;125533;-60
2021/06/15 10:35:38;;;;;;;;;5.00;4.20;;;;;32.64;21.65;99075.13;6275635;27;124835;-61
2021/06/15 10:38:43;;;;;;;;;4.00;4.00;;;;;32.55;21.49;99066.91;6273069;27;124422;-60
2021/06/15 10:41:47;;;;;;;;;4.80;4.80;;;;;32.03;20.92;99049.66;6272180;27;124826;-60
2021/06/15 10:45:26;;;;;;;;;5.00;5.00;;;;;32.02;21.74;99059.16;6270611;27;124865;-60
2021/06/15 10:48:40;;;;;;;;;6.00;4.00;;;;;32.06;22.67;99058.09;6277246;27;126357;-60
2021/06/15 10:52:01;;;;;;;;;6.00;5.67;;;;;32.22;21.93;99055.34;6273500;27;124620;-61
2021/06/15 10:55:41;;;;;;;;;5.00;4.00;;;;;31.71;21.35;99054.41;6268275;27;124720;-61
2021/06/15 10:58:58;;;;;;;;;6.00;6.00;;;;;31.19;22.52;99054.47;6271738;27;125960;-60
2021/06/15 11:02:09;;;;;;;;;7.00;6.00;;;;;31.16;22.38;99047.66;6278958;27;124938;-60
2021/06/15 11:05:40;;;;;;;;;6.00;6.00;;;;;31.08;22.60;99042.25;6265338;27;123846;-60
2021/06/15 11:08:43;;;;;;;;;5.25;5.00;;;;;31.23;22.96;99038.69;6258029;27;124489;-60
2021/06/15 11:11:48;;;;;;;;;5.00;5.00;;;;;31.40;21.54;99039.19;6252899;27;126716;-60
2021/06/15 11:15:24;;;;;;;;;7.00;7.00;;;;;31.23;21.46;99035.91;6247533;27;125774;-60
2021/06/15 11:18:28;;;;;;;;;6.40;5.60;;;;;31.30;21.17;99031.34;6246040;27;127536;-60
2021/06/15 11:21:48;;;;;;;;;6.00;5.40;;;;;31.45;21.49;99026.97;6247345;27;125996;-60
2021/06/15 11:24:55;;;;;;;;;5.40;5.00;;;;;31.60;21.53;99022.63;6252331;27;125813;-60
2021/06/15 11:27:58;;;;;;;;;6.00;5.00;;;;;31.91;21.07;99013.50;6243070;27;124757;-60
2021/06/15 11:31:35;;;;;;;;;5.00;5.00;;;;;32.22;20.95;99014.31;6238092;27;126142;-60
2021/06/15 11:34:40;;;;;;;;;6.40;5.40;;;;;32.21;21.36;99007.09;6237877;27;125932;-60
2021/06/15 11:37:48;;;;;;;;;6.00;6.00;;;;;32.13;21.21;99010.09;6235338;27;124914;-61
2021/06/15 11:40:51;;;;;;;;;7.00;5.00;;;;;31.85;21.47;98996.22;6239789;27;125974;-61
2021/06/15 11:43:56;;;;;;;;;7.00;7.00;;;;;31.59;21.56;99005.09;6242104;27;124823;-61
2021/06/15 11:47:28;;;;;;;;;6.40;6.00;;;;;31.97;21.80;99009.25;6237310;27;125940;-60
2021/06/15 11:50:33;;;;;;;;;6.00;5.00;;;;;32.11;20.51;98990.09;6237398;27;125970;-61
2021/06/15 11:53:40;;;;;;;;;6.20;5.00;;;;;32.19;20.61;99009.47;6235533;27;127307;-60
2021/06/15 11:56:44;;;;;;;;;6.00;6.00;;;;;32.46;22.45;99004.88;6244385;27;126650;-61
2021/06/15 11:59:47;;;;;;;;;6.80;6.00;;;;;32.39;21.94;99001.13;6263762;27;125782;-61
2021/06/15 12:03:00;;;;;;;;;6.00;6.00;;;;;32.36;21.44;98990.69;6265684;27;126227;-61
2021/06/15 12:06:05;;;;;;;;;8.00;7.00;;;;;32.25;20.74;98991.25;6247027;27;123952;-61
2021/06/15 12:09:09;;;;;;;;;6.00;6.00;;;;;32.37;20.64;98993.13;6260008;27;126469;-61
2021/06/15 12:12:13;;;;;;;;;7.00;7.00;;;;;32.60;20.82;98990.44;6262869;27;126117;-61
2021/06/15 12:15:24;;;;;;;;;6.00;5.20;;;;;32.78;21.49;98988.91;6259566;27;126292;-61
2021/06/15 12:18:43;;;;;;;;;6.00;6.00;;;;;32.97;20.59;98983.31;6249812;27;124787;-61
2021/06/15 12:21:47;;;;;;;;;6.00;6.00;;;;;33.20;20.30;98991.78;6243513;27;124951;-61
2021/06/15 12:24:51;;;;;;;;;8.00;7.00;;;;;33.36;20.78;98988.88;6246918;27;125108;-61
2021/06/15 12:28:08;;;;;;;;;6.60;6.00;;;;;33.25;20.15;98996.25;6243340;27;125850;-61
2021/06/15 12:31:14;;;;;;;;;6.00;6.00;;;;;33.14;20.38;98984.03;6244077;27;124089;-61
2021/06/15 12:34:20;;;;;;;;;7.40;7.00;;;;;33.13;20.79;98994.41;6242621;27;125912;-61
2021/06/15 12:37:25;;;;;;;;;7.00;7.00;;;;;33.16;20.22;98988.09;6243011;27;124606;-61
2021/06/15 12:40:30;;;;;;;;;7.00;6.60;;;;;33.14;20.33;98987.63;6247681;27;125830;-61
2021/06/15 12:43:34;;;;;;;;;7.20;6.20;;;;;32.72;20.38;98970.81;6242618;27;126352;-61
2021/06/15 12:46:39;;;;;;;;;7.00;6.00;;;;;32.56;20.56;98981.19;6248576;27;127091;-61
2021/06/15 12:49:50;;;;;;;;;7.00;6.00;;;;;32.33;21.34;98977.47;6240930;27;125005;-61
2021/06/15 12:53:05;;;;;;;;;8.40;7.00;;;;;32.43;21.22;98969.34;6247066;27;126119;-61
2021/06/15 12:56:19;;;;;;;;;7.00;6.50;;;;;32.60;22.35;98965.31;6241689;27;125822;-61
2021/06/15 12:59:22;;;;;;;;;8.80;7.80;;;;;32.49;21.57;98964.28;6239615;27;125308;-61
2021/06/15 13:02:27;;;;;;;;;7.40;7.40;;;;;32.36;21.76;98960.00;6251301;27;127140;-61
2021/06/15 13:05:30;;;;;;;;;9.00;8.40;;;;;32.47;22.35;98961.03;6247859;27;124602;-61
2021/06/15 13:08:36;;;;;;;;;7.25;7.00;;;;;32.51;22.02;98957.16;6265929;27;127169;-61
2021/06/15 13:11:54;;;;;;;;;7.00;7.00;;;;;32.83;22.46;98959.88;6241452;27;127434;-61
2021/06/15 13:15:01;;;;;;;;;8.00;7.00;;;;;33.17;21.20;98958.19;6248110;27;124350;-61
2021/06/15 13:18:09;;;;;;;;;7.80;7.40;;;;;33.27;21.03;98946.41;6243064;27;124819;-61
2021/06/15 13:21:13;;;;;;;;;8.00;8.00;;;;;33.29;20.63;98958.81;6249598;27;125601;-61
2021/06/15 13:24:17;;;;;;;;;9.00;8.40;;;;;33.26;20.38;98956.78;6254034;27;127720;-61
2021/06/15 13:27:31;;;;;;;;;8.00;8.00;;;;;33.13;20.61;98946.09;6238592;27;124571;-61
2021/06/15 13:30:37;;;;;;;;;10.40;9.40;;;;;32.93;20.43;98942.53;6243480;27;126151;-61
2021/06/15 13:33:40;;;;;;;;;7.50;7.00;;;;;32.95;21.46;98918.63;6244524;27;124631;-61
2021/06/15 13:36:43;;;;;;;;;9.00;8.40;;;;;32.96;21.16;98936.19;6247056;27;126219;-61
2021/06/15 13:39:48;;;;;;;;;7.00;6.00;;;;;32.86;21.19;98931.19;6239809;27;124530;-61
2021/06/15 13:42:55;;;;;;;;;9.00;8.00;;;;;32.80;21.97;98918.69;6245087;27;125402;-61
2021/06/15 13:46:01;;;;;;;;;10.00;9.00;;;;;32.74;21.02;98923.81;6229446;27;128127;-61
2021/06/15 13:49:24;;;;;;;;;9.00;8.00;;;;;32.89;21.48;98924.91;6264277;27;124768;-61
2021/06/15 13:52:27;;;;;;;;;9.00;8.00;;;;;32.39;21.12;98915.44;6250147;27;126792;-61
2021/06/15 13:55:31;;;;;;;;;10.00;9.00;;;;;32.14;21.82;98919.66;6239442;27;125751;-61
2021/06/15 13:58:36;;;;;;;;;8.00;8.00;;;;;31.97;22.15;98908.84;6241363;27;125735;-60
2021/06/15 14:01:39;;;;;;;;;9.00;8.80;;;;;31.89;21.49;98909.88;6248085;27;127049;-61
2021/06/15 14:04:43;;;;;;;;;11.00;9.00;;;;;31.80;22.07;98896.13;6249962;27;125698;-60
2021/06/15 14:07:46;;;;;;;;;7.60;7.60;;;;;31.94;22.66;98906.81;6247483;27;126050;-60
2021/06/15 14:10:50;;;;;;;;;9.00;8.00;;;;;32.23;22.72;98909.09;6272944;27;124934;-60
2021/06/15 14:13:54;;;;;;;;;8.00;8.00;;;;;32.54;22.08;98909.00;6279066;27;125867;-60
2021/06/15 14:16:57;;;;;;;;;8.00;8.00;;;;;32.80;21.50;98905.56;6256480;27;125900;-61
2021/06/15 14:20:04;;;;;;;;;7.00;6.25;;;;;32.87;22.22;98900.13;6258787;27;124908;-61
2021/06/15 14:23:08;;;;;;;;;8.40;7.00;;;;;32.85;20.81;98893.28;6243220;27;125396;-61